createdAt,value
2022-10-28T00:02:05.175Z,100989.34
2022-10-28T00:07:07.204Z,100979.97
2022-10-28T00:12:08.754Z,100972.44
2022-10-28T00:17:10.316Z,100986.63
2022-10-28T00:22:11.849Z,100974.59
2022-10-28T00:27:13.372Z,100965.34
2022-10-28T00:32:15.131Z,100971.56
2022-10-28T00:37:16.698Z,100969.56
2022-10-28T00:42:21.114Z,100975.94
2022-10-28T00:47:37.970Z,100971.28
2022-10-28T00:52:40.670Z,100967.03
2022-10-28T00:57:42.941Z,100968.88
2022-10-28T01:02:48.160Z,100962.13
2022-10-28T01:07:52.058Z,100958.09
2022-10-28T01:13:38.341Z,100946.19
2022-10-28T01:18:52.050Z,100949.44
2022-10-28T01:24:10.955Z,100942.63
2022-10-28T01:29:28.819Z,100939.25
2022-10-28T01:34:56.661Z,100943.78
2022-10-28T01:40:14.104Z,100938.41
2022-10-28T01:45:19.920Z,100942.47
2022-10-28T01:50:29.322Z,100927.63
2022-10-28T01:55:35.410Z,100946.66
2022-10-28T02:00:37.789Z,100956.13
2022-10-28T02:05:45.254Z,100938.59
2022-10-28T02:11:11.062Z,100937.13
2022-10-28T02:16:42.869Z,100937.97
2022-10-28T02:22:03.109Z,100929.88
2022-10-28T02:27:41.867Z,100929.53
2022-10-28T02:32:52.112Z,100928.22
2022-10-28T02:37:54.603Z,100940.66
2022-10-28T02:43:00.142Z,100929.84
2022-10-28T02:48:11.276Z,100923.19
2022-10-28T02:53:19.506Z,100923.84
2022-10-28T02:58:21.371Z,100921.16
2022-10-28T03:03:22.949Z,100927.88
2022-10-28T03:08:25.357Z,100923.47
2022-10-28T03:13:26.895Z,100920.78
2022-10-28T03:18:28.501Z,100918.41
2022-10-28T03:23:30.069Z,100921.66
2022-10-28T03:28:31.585Z,100924.00
2022-10-28T03:33:33.228Z,100913.06
2022-10-28T03:38:34.744Z,100905.59
2022-10-28T03:43:36.278Z,100911.72
2022-10-28T03:48:37.784Z,100913.91
2022-10-28T03:53:39.316Z,100918.59
2022-10-28T03:58:41.429Z,100908.81
2022-10-28T04:03:44.119Z,100917.44
2022-10-28T04:08:45.621Z,100900.34
2022-10-28T04:13:47.275Z,100895.97
2022-10-28T04:18:48.899Z,100906.59
2022-10-28T04:23:50.504Z,100913.97
2022-10-28T04:28:52.082Z,100915.34
2022-10-28T04:33:53.657Z,100920.47
2022-10-28T04:38:55.210Z,100901.81
2022-10-28T04:43:56.766Z,100904.06
2022-10-28T04:48:58.358Z,100908.16
2022-10-28T04:53:59.930Z,100898.88
2022-10-28T04:59:01.528Z,100884.88
2022-10-28T05:04:03.191Z,100872.22
2022-10-28T05:09:04.786Z,100865.97
2022-10-28T05:14:06.348Z,100865.66
2022-10-28T05:19:08.016Z,100871.88
2022-10-28T05:24:09.729Z,100876.94
2022-10-28T05:29:11.342Z,100885.66
2022-10-28T05:34:13.050Z,100888.03
2022-10-28T05:39:14.622Z,100875.19
2022-10-28T05:44:16.119Z,100882.28
2022-10-28T05:49:20.325Z,100883.13
2022-10-28T05:54:21.840Z,100892.19
2022-10-28T05:59:23.382Z,100891.69
2022-10-28T06:04:24.920Z,100884.09
2022-10-28T06:09:28.343Z,100889.63
2022-10-28T06:14:28.364Z,100887.50
2022-10-28T06:19:29.881Z,100897.31
2022-10-28T06:24:31.392Z,100898.94
2022-10-28T06:29:33.504Z,100885.31
2022-10-28T06:34:35.032Z,100898.44
2022-10-28T06:39:39.132Z,100893.41
2022-10-28T06:44:40.632Z,100900.50
2022-10-28T06:49:43.655Z,100917.66
2022-10-28T06:54:45.154Z,100918.53
2022-10-28T06:59:46.653Z,100913.31
2022-10-28T07:04:48.214Z,100924.63
2022-10-28T07:09:49.727Z,100910.50
2022-10-28T07:14:51.274Z,100919.81
2022-10-28T07:19:52.855Z,100921.19
2022-10-28T07:24:54.435Z,100922.75
2022-10-28T07:29:55.951Z,100941.97
2022-10-28T07:34:57.468Z,100941.13
2022-10-28T07:39:59.043Z,100929.00
2022-10-28T07:45:00.556Z,100940.97
2022-10-28T07:50:02.316Z,100950.94
2022-10-28T07:55:05.366Z,100948.94
2022-10-28T08:00:07.730Z,100953.69
2022-10-28T08:05:12.075Z,100949.47
2022-10-28T08:10:13.950Z,100951.81
2022-10-28T08:15:16.746Z,100951.97
2022-10-28T08:20:18.414Z,100959.06
2022-10-28T08:25:19.956Z,100950.16
2022-10-28T08:30:21.589Z,100936.31
2022-10-28T08:35:23.138Z,100942.75
2022-10-28T08:40:41.439Z,100928.22
2022-10-28T08:45:50.690Z,100950.31
2022-10-28T08:50:55.686Z,100942.06
2022-10-28T08:56:06.775Z,100941.88
2022-10-28T09:01:16.664Z,100941.22
2022-10-28T09:06:18.252Z,100940.88
2022-10-28T09:12:04.290Z,100939.34
2022-10-28T09:17:18.909Z,100926.53
2022-10-28T09:22:22.450Z,100926.34
2022-10-28T09:27:33.040Z,100929.88
2022-10-28T09:32:49.252Z,100930.03
2022-10-28T09:38:33.558Z,100930.03
2022-10-28T09:43:40.629Z,100932.03
2022-10-28T09:48:45.315Z,100933.19
2022-10-28T09:53:58.396Z,100918.47
2022-10-28T09:59:01.392Z,100905.97
2022-10-28T10:04:15.483Z,100902.91
2022-10-28T10:09:21.757Z,100900.03
2022-10-28T10:14:34.535Z,100886.53
2022-10-28T10:20:10.889Z,100881.78
2022-10-28T10:25:18.490Z,100885.00
2022-10-28T10:30:46.620Z,100873.53
2022-10-28T10:36:00.100Z,100858.28
2022-10-28T10:41:01.975Z,100860.63
2022-10-28T10:46:17.890Z,100849.97
2022-10-28T10:51:24.540Z,100852.19
2022-10-28T10:56:31.588Z,100840.16
2022-10-28T11:01:36.063Z,100836.97
2022-10-28T11:06:39.600Z,100836.44
2022-10-28T11:11:41.204Z,100827.78
2022-10-28T11:16:51.203Z,100821.06
2022-10-28T11:22:17.396Z,100804.47
2022-10-28T11:27:34.334Z,100797.19
2022-10-28T11:32:56.202Z,100787.78
2022-10-28T11:38:31.253Z,100784.34
2022-10-28T11:43:54.800Z,100773.25
2022-10-28T11:49:30.477Z,100774.56
2022-10-28T11:54:47.206Z,100773.66
2022-10-28T11:59:57.885Z,100765.66
2022-10-28T12:05:18.574Z,100761.00
2022-10-28T12:10:32.581Z,100761.31
2022-10-28T12:15:42.847Z,100760.59
2022-10-28T12:21:19.039Z,100753.06
2022-10-28T12:26:21.246Z,100753.72
2022-10-28T12:31:29.199Z,100747.94
2022-10-28T12:36:37.620Z,100744.22
2022-10-28T12:41:50.004Z,100735.56
2022-10-28T12:47:03.470Z,100742.81
2022-10-28T12:52:16.641Z,100739.44
2022-10-28T12:57:19.479Z,100736.38
2022-10-28T13:02:29.415Z,100725.75
2022-10-28T13:07:57.734Z,100725.56
2022-10-28T13:13:03.071Z,100732.66
2022-10-28T13:18:23.343Z,100731.44
2022-10-28T13:23:55.191Z,100725.84
2022-10-28T13:29:02.491Z,100724.16
2022-10-28T13:34:04.110Z,100718.09
2022-10-28T13:39:22.434Z,100717.72
2022-10-28T13:44:26.920Z,100726.50
2022-10-28T13:49:35.453Z,100722.13
2022-10-28T13:54:43.214Z,100720.91
2022-10-28T13:59:51.390Z,100724.47
2022-10-28T14:04:55.470Z,100717.34
2022-10-28T14:10:17.504Z,100723.78
2022-10-28T14:15:28.370Z,100719.78
2022-10-28T14:20:59.214Z,100723.88
2022-10-28T14:26:04.480Z,100724.25
2022-10-28T14:31:12.141Z,100727.13
2022-10-28T14:36:20.487Z,100724.53
2022-10-28T14:41:34.488Z,100727.56
2022-10-28T14:46:47.407Z,100716.59
2022-10-28T14:51:49.927Z,100713.97
2022-10-28T14:56:55.187Z,100716.72
2022-10-28T15:02:01.497Z,100715.88
2022-10-28T15:07:03.655Z,100719.97
2022-10-28T15:12:07.985Z,100722.50
2022-10-28T15:17:12.124Z,100726.59
2022-10-28T15:22:18.367Z,100715.78
2022-10-28T15:27:20.236Z,100722.38
2022-10-28T15:32:21.658Z,100717.81
2022-10-28T15:37:26.152Z,100716.13
2022-10-28T15:42:43.893Z,100709.25
2022-10-28T15:47:46.701Z,100714.81
2022-10-28T15:52:53.571Z,100713.81
2022-10-28T15:57:57.665Z,100706.41
2022-10-28T16:03:05.321Z,100702.00
2022-10-28T16:08:18.331Z,100705.56
2022-10-28T16:13:29.297Z,100708.94
2022-10-28T16:18:33.752Z,100701.00
2022-10-28T16:23:38.725Z,100703.69
2022-10-28T16:28:44.919Z,100705.56
2022-10-28T16:33:47.134Z,100705.56
2022-10-28T16:38:48.669Z,100707.88
2022-10-28T16:43:50.193Z,100709.28
2022-10-28T16:48:51.767Z,100714.69
2022-10-28T16:53:53.312Z,100717.94
2022-10-28T16:58:55.012Z,100721.31
2022-10-28T17:03:56.507Z,100721.13
2022-10-28T17:09:02.979Z,100717.09
2022-10-28T17:14:05.265Z,100715.78
2022-10-28T17:19:06.849Z,100712.22
2022-10-28T17:24:08.539Z,100712.06
2022-10-28T17:29:10.219Z,100722.75
2022-10-28T17:34:12.060Z,100723.41
2022-10-28T17:39:17.780Z,100726.28
2022-10-28T17:44:21.536Z,100727.13
2022-10-28T17:49:23.060Z,100718.34
2022-10-28T17:59:31.062Z,100729.38
2022-10-28T18:04:33.225Z,100726.16
2022-10-28T18:09:34.816Z,100728.53
2022-10-28T18:14:36.330Z,100711.47
2022-10-28T18:19:37.913Z,100711.63
2022-10-28T18:24:39.548Z,100704.53
2022-10-28T18:29:41.119Z,100699.81
2022-10-28T18:34:42.671Z,100709.31
2022-10-28T18:39:44.275Z,100699.44
2022-10-28T18:44:45.787Z,100691.03
2022-10-28T18:49:47.348Z,100697.97
2022-10-28T18:54:48.881Z,100697.47
2022-10-28T19:00:20.159Z,100700.19
2022-10-28T19:05:12.669Z,100704.22
2022-10-28T19:10:14.795Z,100691.41
2022-10-28T19:15:16.934Z,100694.09
2022-10-28T19:20:18.524Z,100694.78
2022-10-28T19:25:20.031Z,100693.28
2022-10-28T19:30:21.543Z,100700.19
2022-10-28T19:35:23.081Z,100698.50
2022-10-28T19:40:24.636Z,100693.41
2022-10-28T19:45:26.303Z,100697.16
2022-10-28T19:50:28.220Z,100713.75
2022-10-28T19:55:29.751Z,100706.13
2022-10-28T20:00:31.285Z,100710.38
2022-10-28T20:05:32.824Z,100715.97
2022-10-28T20:10:34.537Z,100719.19
2022-10-28T20:15:36.131Z,100725.44
2022-10-28T20:20:37.629Z,100728.59
2022-10-28T20:25:39.182Z,100731.16
2022-10-28T20:30:40.787Z,100726.38
2022-10-28T20:35:42.289Z,100735.06
2022-10-28T20:40:48.292Z,100736.75
2022-10-28T20:45:59.379Z,100734.22
2022-10-28T20:51:02.384Z,100737.47
2022-10-28T20:56:04.452Z,100741.13
2022-10-28T21:01:14.328Z,100745.88
2022-10-28T21:06:16.853Z,100742.47
2022-10-28T21:11:18.518Z,100747.91
2022-10-28T21:16:20.821Z,100756.38
2022-10-28T21:21:23.394Z,100753.00
2022-10-28T21:26:26.908Z,100746.09
2022-10-28T21:31:28.446Z,100745.97
2022-10-28T21:36:30.828Z,100757.66
2022-10-28T21:41:32.368Z,100761.19
2022-10-28T21:46:33.975Z,100764.00
2022-10-28T21:51:35.489Z,100770.28
2022-10-28T21:56:37.106Z,100771.81
2022-10-28T22:01:38.715Z,100760.88
2022-10-28T22:06:40.360Z,100752.56
2022-10-28T22:11:41.981Z,100773.34
2022-10-28T22:16:43.514Z,100773.41
2022-10-28T22:21:45.103Z,100785.16
2022-10-28T22:26:46.852Z,100768.66
2022-10-28T22:31:48.449Z,100777.25
2022-10-28T22:36:50.067Z,100775.22
2022-10-28T22:41:51.636Z,100771.03
2022-10-28T22:46:53.180Z,100780.66
2022-10-28T22:51:54.755Z,100779.13
2022-10-28T22:56:56.269Z,100786.25
2022-10-28T23:01:58.007Z,100787.44
2022-10-28T23:06:59.597Z,100792.00
2022-10-28T23:12:01.140Z,100774.63
2022-10-28T23:17:02.683Z,100782.22
2022-10-28T23:22:04.239Z,100790.97
2022-10-28T23:27:05.782Z,100789.28
2022-10-28T23:32:07.310Z,100796.94
2022-10-28T23:37:08.812Z,100794.03
2022-10-28T23:42:10.328Z,100808.41
2022-10-28T23:47:11.857Z,100812.47
2022-10-28T23:52:13.423Z,100804.53
2022-10-28T23:57:15.006Z,100805.56
